This is the latest recevied weather packets stored in our database for station/object PY1LEO-13. If no packets are shown the sender has not sent any weather packets the latest 10 day(s).
| Time | Temp. | Humidity | Pressure | Rain* | Wind** | Luminosity | Snow |
|---|---|---|---|---|---|---|---|
| 1777523460 | 27.22° C | 68% | 1016.2 hPa | - | - | - | - |
| 1777523160 | 27.22° C | 67% | 1016.3 hPa | - | - | - | - |
| 1777522860 | 27.22° C | 68% | 1016.4 hPa | - | - | - | - |
| 1777522560 | 27.78° C | 67% | 1016.3 hPa | - | - | - | - |
| 1777522261 | 25.56° C | 73% | 1016.3 hPa | - | - | - | - |
| 1777521960 | 27.78° C | 66% | 1016.3 hPa | - | - | - | - |
| 1777521660 | 27.78° C | 65% | 1016.3 hPa | - | - | - | - |
| 1777521360 | 27.78° C | 65% | 1016.4 hPa | - | - | - | - |
| 1777521060 | 27.78° C | 67% | 1016.4 hPa | - | - | - | - |
| 1777520760 | 27.78° C | 65% | 1016.4 hPa | - | - | - | - |
| 1777520460 | 27.78° C | 67% | 1016.4 hPa | - | - | - | - |
| 1777520161 | 27.78° C | 66% | 1016.3 hPa | - | - | - | - |
| 1777519860 | 27.78° C | 65% | 1016.3 hPa | - | - | - | - |
| 1777519560 | 27.78° C | 66% | 1016.3 hPa | - | - | - | - |
| 1777519260 | 28.33° C | 62% | 1016.4 hPa | - | - | - | - |
| 1777518961 | 28.33° C | 62% | 1016.4 hPa | - | - | - | - |
| 1777518660 | 28.89° C | 62% | 1016.4 hPa | - | - | - | - |
| 1777518360 | 28.33° C | 64% | 1016.3 hPa | - | - | - | - |
| 1777518061 | 28.33° C | 64% | 1016.3 hPa | - | - | - | - |
| 1777517760 | 28.33° C | 63% | 1016.3 hPa | - | - | - | - |
| 1777517460 | 28.33° C | 63% | 1016.4 hPa | - | - | - | - |
| 1777517160 | 28.89° C | 62% | 1016.4 hPa | - | - | - | - |
| 1777516860 | 28.33° C | 63% | 1016.4 hPa | - | - | - | - |
| 1777516560 | 28.33° C | 63% | 1016.4 hPa | - | - | - | - |
| 1777516260 | 28.89° C | 63% | 1016.4 hPa | - | - | - | - |
* Rain since midnight (hover to see other rain measurements)
** Current wind speed in m/s (hover to see current wind gust speed)